sensor_id;sensor_type;location;lat;lon;timestamp;pressure;altitude;pressure_sealevel;temperature;humidity
32320;BME280;19080;51.750;5.888;2023-04-29T00:01:05;101209.31;;;11.02;100.00
32320;BME280;19080;51.750;5.888;2023-04-29T00:03:32;101205.66;;;10.97;100.00
32320;BME280;19080;51.750;5.888;2023-04-29T00:05:59;101199.34;;;10.90;100.00
32320;BME280;19080;51.750;5.888;2023-04-29T00:08:27;101209.16;;;10.94;100.00
32320;BME280;19080;51.750;5.888;2023-04-29T00:10:53;101201.97;;;10.89;100.00
32320;BME280;19080;51.750;5.888;2023-04-29T00:13:21;101200.19;;;10.88;100.00
32320;BME280;19080;51.750;5.888;2023-04-29T00:15:48;101215.34;;;10.93;100.00
32320;BME280;19080;51.750;5.888;2023-04-29T00:18:15;101211.81;;;10.94;100.00
32320;BME280;19080;51.750;5.888;2023-04-29T00:20:42;101196.44;;;10.78;100.00
32320;BME280;19080;51.750;5.888;2023-04-29T00:23:10;101157.84;;;10.52;100.00
32320;BME280;19080;51.750;5.888;2023-04-29T00:25:37;101216.94;;;10.85;100.00
32320;BME280;19080;51.750;5.888;2023-04-29T00:28:07;101235.75;;;10.96;100.00
32320;BME280;19080;51.750;5.888;2023-04-29T00:30:34;101193.53;;;10.66;100.00
32320;BME280;19080;51.750;5.888;2023-04-29T00:33:01;101205.75;;;10.58;100.00
32320;BME280;19080;51.750;5.888;2023-04-29T00:35:29;101239.84;;;10.80;100.00
32320;BME280;19080;51.750;5.888;2023-04-29T00:37:56;101252.25;;;10.81;100.00
32320;BME280;19080;51.750;5.888;2023-04-29T00:40:22;101255.72;;;10.77;100.00
32320;BME280;19080;51.750;5.888;2023-04-29T00:42:49;101227.88;;;10.58;100.00
32320;BME280;19080;51.750;5.888;2023-04-29T00:45:16;101235.13;;;10.65;100.00
32320;BME280;19080;51.750;5.888;2023-04-29T00:47:42;101214.59;;;10.57;100.00
32320;BME280;19080;51.750;5.888;2023-04-29T00:50:09;101215.44;;;10.56;100.00
32320;BME280;19080;51.750;5.888;2023-04-29T00:52:37;101225.16;;;10.55;100.00
32320;BME280;19080;51.750;5.888;2023-04-29T00:55:06;101223.41;;;10.56;100.00
32320;BME280;19080;51.750;5.888;2023-04-29T00:57:35;101243.13;;;10.67;100.00
32320;BME280;19080;51.750;5.888;2023-04-29T01:00:02;101252.00;;;10.69;100.00
32320;BME280;19080;51.750;5.888;2023-04-29T01:02:29;101173.88;;;10.16;100.00
32320;BME280;19080;51.750;5.888;2023-04-29T01:04:56;101257.94;;;10.57;100.00
32320;BME280;19080;51.750;5.888;2023-04-29T01:07:30;101261.53;;;10.59;100.00
32320;BME280;19080;51.750;5.888;2023-04-29T01:10:14;101268.69;;;10.63;100.00
32320;BME280;19080;51.750;5.888;2023-04-29T01:12:49;101244.38;;;10.43;100.00
32320;BME280;19080;51.750;5.888;2023-04-29T01:15:22;101274.78;;;10.58;100.00
32320;BME280;19080;51.750;5.888;2023-04-29T01:18:03;101254.84;;;10.36;100.00
32320;BME280;19080;51.750;5.888;2023-04-29T01:20:31;101261.13;;;10.41;100.00
32320;BME280;19080;51.750;5.888;2023-04-29T01:23:00;101287.81;;;10.47;100.00
32320;BME280;19080;51.750;5.888;2023-04-29T01:25:27;101251.88;;;10.22;100.00
32320;BME280;19080;51.750;5.888;2023-04-29T01:28:31;101284.94;;;10.36;100.00
32320;BME280;19080;51.750;5.888;2023-04-29T01:31:09;101292.00;;;10.36;100.00
32320;BME280;19080;51.750;5.888;2023-04-29T01:33:47;101267.81;;;10.22;100.00
32320;BME280;19080;51.750;5.888;2023-04-29T01:36:46;101292.72;;;10.29;100.00
32320;BME280;19080;51.750;5.888;2023-04-29T01:39:31;101300.66;;;10.27;100.00
32320;BME280;19080;51.750;5.888;2023-04-29T01:44:40;101286.19;;;10.16;100.00
32320;BME280;19080;51.750;5.888;2023-04-29T01:47:12;101278.19;;;10.15;100.00
32320;BME280;19080;51.750;5.888;2023-04-29T01:49:43;101291.69;;;10.22;100.00
32320;BME280;19080;51.750;5.888;2023-04-29T01:52:13;101284.25;;;10.09;100.00
32320;BME280;19080;51.750;5.888;2023-04-29T01:54:44;101295.78;;;10.11;100.00
32320;BME280;19080;51.750;5.888;2023-04-29T01:57:11;101277.09;;;10.05;100.00
32320;BME280;19080;51.750;5.888;2023-04-29T01:59:52;101268.13;;;10.00;100.00
32320;BME280;19080;51.750;5.888;2023-04-29T02:02:40;101305.81;;;10.21;100.00
32320;BME280;19080;51.750;5.888;2023-04-29T02:05:15;101302.19;;;10.19;100.00
32320;BME280;19080;51.750;5.888;2023-04-29T02:07:50;101255.53;;;9.91;100.00
32320;BME280;19080;51.750;5.888;2023-04-29T02:10:17;101288.00;;;10.17;100.00
32320;BME280;19080;51.750;5.888;2023-04-29T02:12:46;101301.25;;;10.17;100.00
32320;BME280;19080;51.750;5.888;2023-04-29T02:15:14;101305.03;;;10.25;100.00
32320;BME280;19080;51.750;5.888;2023-04-29T02:17:42;101317.44;;;10.26;100.00
32320;BME280;19080;51.750;5.888;2023-04-29T02:20:09;101274.41;;;10.03;100.00
32320;BME280;19080;51.750;5.888;2023-04-29T02:22:36;101287.84;;;10.11;100.00
32320;BME280;19080;51.750;5.888;2023-04-29T02:25:02;101316.56;;;10.27;100.00
32320;BME280;19080;51.750;5.888;2023-04-29T02:27:30;101228.44;;;9.68;100.00
32320;BME280;19080;51.750;5.888;2023-04-29T02:29:57;101315.63;;;10.25;100.00
32320;BME280;19080;51.750;5.888;2023-04-29T02:32:24;101335.13;;;10.27;100.00
32320;BME280;19080;51.750;5.888;2023-04-29T02:34:52;101334.19;;;10.25;100.00
32320;BME280;19080;51.750;5.888;2023-04-29T02:37:20;101319.94;;;10.20;100.00
32320;BME280;19080;51.750;5.888;2023-04-29T02:39:46;101319.75;;;10.14;100.00
32320;BME280;19080;51.750;5.888;2023-04-29T02:42:13;101333.25;;;10.23;100.00
32320;BME280;19080;51.750;5.888;2023-04-29T02:44:40;101351.16;;;10.32;100.00
32320;BME280;19080;51.750;5.888;2023-04-29T02:47:07;101280.22;;;9.89;100.00
32320;BME280;19080;51.750;5.888;2023-04-29T02:49:34;101354.69;;;10.31;100.00
32320;BME280;19080;51.750;5.888;2023-04-29T02:52:01;101330.44;;;10.17;100.00
32320;BME280;19080;51.750;5.888;2023-04-29T02:54:28;101333.19;;;10.20;100.00
32320;BME280;19080;51.750;5.888;2023-04-29T02:56:55;101344.75;;;10.22;100.00
32320;BME280;19080;51.750;5.888;2023-04-29T02:59:21;101317.06;;;10.13;100.00
32320;BME280;19080;51.750;5.888;2023-04-29T03:01:48;101338.63;;;10.25;100.00
32320;BME280;19080;51.750;5.888;2023-04-29T03:04:15;101358.25;;;10.33;100.00
32320;BME280;19080;51.750;5.888;2023-04-29T03:06:42;101344.78;;;10.24;100.00
32320;BME280;19080;51.750;5.888;2023-04-29T03:09:10;101363.63;;;10.34;100.00
32320;BME280;19080;51.750;5.888;2023-04-29T03:11:39;101333.94;;;10.16;100.00
32320;BME280;19080;51.750;5.888;2023-04-29T03:14:05;101369.78;;;10.33;100.00
32320;BME280;19080;51.750;5.888;2023-04-29T03:16:32;101358.03;;;10.24;100.00
32320;BME280;19080;51.750;5.888;2023-04-29T03:19:00;101360.72;;;10.25;100.00
32320;BME280;19080;51.750;5.888;2023-04-29T03:21:27;101331.03;;;10.05;100.00
32320;BME280;19080;51.750;5.888;2023-04-29T03:23:56;101365.09;;;10.23;100.00
32320;BME280;19080;51.750;5.888;2023-04-29T03:26:28;101357.06;;;10.20;100.00
32320;BME280;19080;51.750;5.888;2023-04-29T03:28:55;101379.41;;;10.30;100.00
32320;BME280;19080;51.750;5.888;2023-04-29T03:31:25;101359.56;;;10.16;100.00
32320;BME280;19080;51.750;5.888;2023-04-29T03:33:52;101388.25;;;10.29;100.00
32320;BME280;19080;51.750;5.888;2023-04-29T03:36:20;101371.34;;;10.25;100.00
32320;BME280;19080;51.750;5.888;2023-04-29T03:38:56;101333.78;;;10.10;100.00
32320;BME280;19080;51.750;5.888;2023-04-29T03:41:23;101375.00;;;10.30;100.00
32320;BME280;19080;51.750;5.888;2023-04-29T03:43:51;101379.31;;;10.25;100.00
32320;BME280;19080;51.750;5.888;2023-04-29T03:46:18;101289.66;;;9.77;100.00
32320;BME280;19080;51.750;5.888;2023-04-29T03:48:44;101385.69;;;10.33;100.00
32320;BME280;19080;51.750;5.888;2023-04-29T03:51:12;101393.69;;;10.35;100.00
32320;BME280;19080;51.750;5.888;2023-04-29T03:53:39;101372.97;;;10.20;100.00
32320;BME280;19080;51.750;5.888;2023-04-29T03:56:08;101378.38;;;10.23;100.00
32320;BME280;19080;51.750;5.888;2023-04-29T03:58:36;101358.59;;;10.12;100.00
32320;BME280;19080;51.750;5.888;2023-04-29T04:01:03;101376.56;;;10.22;100.00
32320;BME280;19080;51.750;5.888;2023-04-29T04:03:37;101387.41;;;10.31;100.00
32320;BME280;19080;51.750;5.888;2023-04-29T04:06:04;101324.50;;;9.93;100.00
32320;BME280;19080;51.750;5.888;2023-04-29T04:08:31;101419.53;;;10.43;100.00
32320;BME280;19080;51.750;5.888;2023-04-29T04:11:11;101399.81;;;10.32;100.00
32320;BME280;19080;51.750;5.888;2023-04-29T04:13:43;101397.97;;;10.28;100.00
32320;BME280;19080;51.750;5.888;2023-04-29T04:16:12;101402.47;;;10.32;100.00
32320;BME280;19080;51.750;5.888;2023-04-29T04:18:39;101397.22;;;10.34;100.00
32320;BME280;19080;51.750;5.888;2023-04-29T04:21:10;101338.88;;;10.01;100.00
32320;BME280;19080;51.750;5.888;2023-04-29T04:23:39;101409.63;;;10.35;100.00
32320;BME280;19080;51.750;5.888;2023-04-29T04:26:09;101408.03;;;10.43;100.00
32320;BME280;19080;51.750;5.888;2023-04-29T04:28:54;101408.75;;;10.36;100.00
32320;BME280;19080;51.750;5.888;2023-04-29T04:31:47;101413.13;;;10.34;100.00
32320;BME280;19080;51.750;5.888;2023-04-29T04:34:15;101414.84;;;10.32;100.00
32320;BME280;19080;51.750;5.888;2023-04-29T04:36:45;101425.53;;;10.35;100.00
32320;BME280;19080;51.750;5.888;2023-04-29T04:39:12;101419.34;;;10.34;100.00
32320;BME280;19080;51.750;5.888;2023-04-29T04:41:39;101441.69;;;10.46;100.00
32320;BME280;19080;51.750;5.888;2023-04-29T04:44:06;101429.94;;;10.34;100.00
32320;BME280;19080;51.750;5.888;2023-04-29T04:46:40;101426.34;;;10.32;100.00
32320;BME280;19080;51.750;5.888;2023-04-29T04:49:13;101457.75;;;10.50;100.00
32320;BME280;19080;51.750;5.888;2023-04-29T04:51:47;101461.34;;;10.52;100.00
32320;BME280;19080;51.750;5.888;2023-04-29T04:54:14;101438.84;;;10.36;100.00
32320;BME280;19080;51.750;5.888;2023-04-29T04:56:41;101431.75;;;10.35;100.00
32320;BME280;19080;51.750;5.888;2023-04-29T04:59:08;101451.19;;;10.34;100.00
32320;BME280;19080;51.750;5.888;2023-04-29T05:01:37;101483.47;;;10.53;100.00
32320;BME280;19080;51.750;5.888;2023-04-29T05:04:04;101467.38;;;10.47;100.00
32320;BME280;19080;51.750;5.888;2023-04-29T05:06:30;101476.28;;;10.49;100.00
32320;BME280;19080;51.750;5.888;2023-04-29T05:08:59;101456.50;;;10.34;100.00
32320;BME280;19080;51.750;5.888;2023-04-29T05:11:25;101482.50;;;10.49;100.00
32320;BME280;19080;51.750;5.888;2023-04-29T05:14:06;101501.19;;;10.54;100.00
32320;BME280;19080;51.750;5.888;2023-04-29T05:16:34;101470.69;;;10.36;100.00
32320;BME280;19080;51.750;5.888;2023-04-29T05:19:01;101497.59;;;10.52;100.00
32320;BME280;19080;51.750;5.888;2023-04-29T05:21:31;101505.75;;;10.59;100.00
32320;BME280;19080;51.750;5.888;2023-04-29T05:23:59;101493.16;;;10.51;100.00
32320;BME280;19080;51.750;5.888;2023-04-29T05:26:26;101500.28;;;10.53;100.00
32320;BME280;19080;51.750;5.888;2023-04-29T05:28:57;101476.19;;;10.46;100.00
32320;BME280;19080;51.750;5.888;2023-04-29T05:31:23;101484.31;;;10.52;100.00
32320;BME280;19080;51.750;5.888;2023-04-29T05:33:51;101512.28;;;10.72;100.00
32320;BME280;19080;51.750;5.888;2023-04-29T05:36:18;101497.75;;;10.58;100.00
32320;BME280;19080;51.750;5.888;2023-04-29T05:38:46;101490.56;;;10.54;100.00
32320;BME280;19080;51.750;5.888;2023-04-29T05:41:12;101522.97;;;10.75;100.00
32320;BME280;19080;51.750;5.888;2023-04-29T05:44:10;101524.69;;;10.73;100.00
32320;BME280;19080;51.750;5.888;2023-04-29T05:46:36;101496.16;;;10.64;100.00
32320;BME280;19080;51.750;5.888;2023-04-29T05:49:03;101507.81;;;10.71;100.00
32320;BME280;19080;51.750;5.888;2023-04-29T05:51:30;101506.97;;;10.72;100.00
32320;BME280;19080;51.750;5.888;2023-04-29T05:53:57;101518.72;;;10.82;100.00
32320;BME280;19080;51.750;5.888;2023-04-29T05:56:27;101521.63;;;10.92;100.00
32320;BME280;19080;51.750;5.888;2023-04-29T05:58:54;101527.25;;;11.04;100.00
32320;BME280;19080;51.750;5.888;2023-04-29T06:01:21;101512.44;;;11.14;100.00
32320;BME280;19080;51.750;5.888;2023-04-29T06:03:48;101450.03;;;10.97;100.00
32320;BME280;19080;51.750;5.888;2023-04-29T06:06:37;101549.78;;;11.59;100.00
32320;BME280;19080;51.750;5.888;2023-04-29T06:09:20;101550.13;;;11.74;100.00
32320;BME280;19080;51.750;5.888;2023-04-29T06:11:55;101535.88;;;11.71;100.00
32320;BME280;19080;51.750;5.888;2023-04-29T06:14:22;101529.94;;;11.83;100.00
32320;BME280;19080;51.750;5.888;2023-04-29T06:16:49;101536.22;;;11.86;100.00
32320;BME280;19080;51.750;5.888;2023-04-29T06:19:16;101511.97;;;11.72;100.00
32320;BME280;19080;51.750;5.888;2023-04-29T06:21:42;101530.81;;;11.82;100.00
32320;BME280;19080;51.750;5.888;2023-04-29T06:24:09;101581.16;;;12.16;100.00
32320;BME280;19080;51.750;5.888;2023-04-29T06:26:36;101579.56;;;12.24;100.00
32320;BME280;19080;51.750;5.888;2023-04-29T06:29:02;101485.38;;;11.72;100.00
32320;BME280;19080;51.750;5.888;2023-04-29T06:31:29;101519.59;;;11.96;100.00
32320;BME280;19080;51.750;5.888;2023-04-29T06:34:00;101563.66;;;12.27;100.00
32320;BME280;19080;51.750;5.888;2023-04-29T06:36:27;101556.53;;;12.26;100.00
32320;BME280;19080;51.750;5.888;2023-04-29T06:39:06;101548.69;;;12.34;100.00
32320;BME280;19080;51.750;5.888;2023-04-29T06:41:46;101553.00;;;12.27;100.00
32320;BME280;19080;51.750;5.888;2023-04-29T06:44:51;101604.34;;;12.65;100.00
32320;BME280;19080;51.750;5.888;2023-04-29T06:47:36;101518.38;;;12.26;100.00
32320;BME280;19080;51.750;5.888;2023-04-29T06:50:10;101589.16;;;12.61;100.00
32320;BME280;19080;51.750;5.888;2023-04-29T06:52:36;101619.81;;;12.86;100.00
32320;BME280;19080;51.750;5.888;2023-04-29T06:55:03;101619.25;;;13.04;100.00
32320;BME280;19080;51.750;5.888;2023-04-29T06:57:30;101613.16;;;13.11;100.00
32320;BME280;19080;51.750;5.888;2023-04-29T06:59:57;101554.88;;;12.80;100.00
32320;BME280;19080;51.750;5.888;2023-04-29T07:02:24;101547.78;;;12.82;100.00
32320;BME280;19080;51.750;5.888;2023-04-29T07:04:50;101624.75;;;13.15;100.00
32320;BME280;19080;51.750;5.888;2023-04-29T07:07:18;101561.00;;;12.76;100.00
32320;BME280;19080;51.750;5.888;2023-04-29T07:09:44;101557.34;;;12.69;100.00
32320;BME280;19080;51.750;5.888;2023-04-29T07:12:11;101580.50;;;12.73;100.00
32320;BME280;19080;51.750;5.888;2023-04-29T07:14:38;101639.66;;;13.03;100.00
32320;BME280;19080;51.750;5.888;2023-04-29T07:17:04;101635.09;;;12.96;100.00
32320;BME280;19080;51.750;5.888;2023-04-29T07:19:31;101652.19;;;13.08;100.00
32320;BME280;19080;51.750;5.888;2023-04-29T07:21:58;101613.66;;;12.90;100.00
32320;BME280;19080;51.750;5.888;2023-04-29T07:24:24;101654.09;;;13.15;100.00
32320;BME280;19080;51.750;5.888;2023-04-29T07:26:52;101665.88;;;13.26;100.00
32320;BME280;19080;51.750;5.888;2023-04-29T07:29:18;101672.13;;;13.28;100.00
32320;BME280;19080;51.750;5.888;2023-04-29T07:31:45;101667.72;;;13.30;100.00
32320;BME280;19080;51.750;5.888;2023-04-29T07:34:12;101655.28;;;13.30;100.00
32320;BME280;19080;51.750;5.888;2023-04-29T07:36:39;101665.06;;;13.30;100.00
32320;BME280;19080;51.750;5.888;2023-04-29T07:39:05;101666.78;;;13.28;100.00
32320;BME280;19080;51.750;5.888;2023-04-29T07:41:32;101666.91;;;13.34;100.00
32320;BME280;19080;51.750;5.888;2023-04-29T07:43:59;101681.41;;;13.51;100.00
32320;BME280;19080;51.750;5.888;2023-04-29T07:46:25;101685.16;;;13.62;100.00
32320;BME280;19080;51.750;5.888;2023-04-29T07:48:52;101671.00;;;13.66;100.00
32320;BME280;19080;51.750;5.888;2023-04-29T07:51:19;101685.41;;;13.78;100.00
32320;BME280;19080;51.750;5.888;2023-04-29T07:53:47;101686.31;;;13.80;100.00
32320;BME280;19080;51.750;5.888;2023-04-29T07:56:13;101613.72;;;13.43;100.00
32320;BME280;19080;51.750;5.888;2023-04-29T07:58:40;101653.28;;;13.72;100.00
32320;BME280;19080;51.750;5.888;2023-04-29T08:01:07;101689.16;;;13.93;100.00
32320;BME280;19080;51.750;5.888;2023-04-29T08:03:35;101696.59;;;14.14;100.00
32320;BME280;19080;51.750;5.888;2023-04-29T08:06:06;101698.69;;;14.37;100.00
32320;BME280;19080;51.750;5.888;2023-04-29T08:08:33;101619.13;;;14.13;100.00
32320;BME280;19080;51.750;5.888;2023-04-29T08:11:00;101627.28;;;14.23;100.00
32320;BME280;19080;51.750;5.888;2023-04-29T08:13:27;101693.94;;;14.82;100.00
32320;BME280;19080;51.750;5.888;2023-04-29T08:15:54;101697.88;;;15.18;100.00
32320;BME280;19080;51.750;5.888;2023-04-29T08:18:20;101606.72;;;14.90;100.00
32320;BME280;19080;51.750;5.888;2023-04-29T08:20:47;101707.22;;;15.59;100.00
32320;BME280;19080;51.750;5.888;2023-04-29T08:23:15;101682.13;;;15.48;100.00
32320;BME280;19080;51.750;5.888;2023-04-29T08:25:42;101664.28;;;15.47;100.00
32320;BME280;19080;51.750;5.888;2023-04-29T08:28:09;101696.53;;;15.66;100.00
32320;BME280;19080;51.750;5.888;2023-04-29T08:30:38;101701.25;;;15.99;100.00
32320;BME280;19080;51.750;5.888;2023-04-29T08:33:05;101712.91;;;16.08;100.00
32320;BME280;19080;51.750;5.888;2023-04-29T08:35:32;101695.09;;;16.12;100.00
32320;BME280;19080;51.750;5.888;2023-04-29T08:37:58;101706.78;;;16.29;100.00
32320;BME280;19080;51.750;5.888;2023-04-29T08:40:26;101707.81;;;16.54;100.00
32320;BME280;19080;51.750;5.888;2023-04-29T08:42:53;101707.00;;;16.67;100.00
32320;BME280;19080;51.750;5.888;2023-04-29T08:45:21;101700.81;;;16.86;100.00
32320;BME280;19080;51.750;5.888;2023-04-29T08:47:51;101653.34;;;16.64;100.00
32320;BME280;19080;51.750;5.888;2023-04-29T08:50:18;101711.56;;;16.89;100.00
32320;BME280;19080;51.750;5.888;2023-04-29T08:52:44;101720.53;;;17.01;100.00
32320;BME280;19080;51.750;5.888;2023-04-29T08:55:11;101694.63;;;17.06;100.00
32320;BME280;19080;51.750;5.888;2023-04-29T08:57:38;101639.09;;;16.70;100.00
32320;BME280;19080;51.750;5.888;2023-04-29T09:00:07;101734.88;;;17.12;100.00
32320;BME280;19080;51.750;5.888;2023-04-29T09:02:54;101703.50;;;16.83;100.00
32320;BME280;19080;51.750;5.888;2023-04-29T09:05:23;101725.91;;;16.98;100.00
32320;BME280;19080;51.750;5.888;2023-04-29T09:07:50;101716.97;;;17.05;100.00
32320;BME280;19080;51.750;5.888;2023-04-29T09:10:17;101708.91;;;17.03;100.00
32320;BME280;19080;51.750;5.888;2023-04-29T09:12:44;101691.88;;;16.87;100.00
32320;BME280;19080;51.750;5.888;2023-04-29T09:15:12;101746.47;;;17.03;100.00
32320;BME280;19080;51.750;5.888;2023-04-29T09:17:45;101737.53;;;17.04;100.00
32320;BME280;19080;51.750;5.888;2023-04-29T09:20:25;101645.28;;;16.52;100.00
32320;BME280;19080;51.750;5.888;2023-04-29T09:23:10;101731.25;;;16.95;100.00
32320;BME280;19080;51.750;5.888;2023-04-29T09:25:37;101750.06;;;17.07;100.00
32320;BME280;19080;51.750;5.888;2023-04-29T09:28:16;101741.06;;;16.91;100.00
32320;BME280;19080;51.750;5.888;2023-04-29T09:30:45;101748.16;;;16.77;98.56
32320;BME280;19080;51.750;5.888;2023-04-29T09:33:12;101739.22;;;16.75;100.00
32320;BME280;19080;51.750;5.888;2023-04-29T09:35:40;101740.13;;;16.78;100.00
32320;BME280;19080;51.750;5.888;2023-04-29T09:38:12;101748.28;;;17.09;100.00
32320;BME280;19080;51.750;5.888;2023-04-29T09:40:40;101720.59;;;17.25;98.83
32320;BME280;19080;51.750;5.888;2023-04-29T09:43:24;101727.78;;;17.90;96.17
32320;BME280;19080;51.750;5.888;2023-04-29T09:45:51;101733.94;;;18.50;89.05
32320;BME280;19080;51.750;5.888;2023-04-29T09:48:18;101749.16;;;18.69;81.17
32320;BME280;19080;51.750;5.888;2023-04-29T09:50:58;101669.53;;;18.15;83.96
32320;BME280;19080;51.750;5.888;2023-04-29T09:53:29;101746.53;;;18.42;85.37
32320;BME280;19080;51.750;5.888;2023-04-29T09:56:01;101734.50;;;19.25;82.21
32320;BME280;19080;51.750;5.888;2023-04-29T09:58:32;101675.09;;;19.53;73.65
32320;BME280;19080;51.750;5.888;2023-04-29T10:01:06;101698.28;;;19.69;68.75
32320;BME280;19080;51.750;5.888;2023-04-29T10:03:34;101766.59;;;19.59;66.71
32320;BME280;19080;51.750;5.888;2023-04-29T10:06:04;101684.63;;;18.60;67.68
32320;BME280;19080;51.750;5.888;2023-04-29T10:08:32;101725.91;;;18.38;74.66
32320;BME280;19080;51.750;5.888;2023-04-29T10:11:00;101761.81;;;18.09;72.64
32320;BME280;19080;51.750;5.888;2023-04-29T10:13:28;101683.03;;;17.17;77.09
32320;BME280;19080;51.750;5.888;2023-04-29T10:18:34;101770.59;;;16.96;81.32
32320;BME280;19080;51.750;5.888;2023-04-29T10:21:06;101753.63;;;17.00;84.93
32320;BME280;19080;51.750;5.888;2023-04-29T10:23:33;101742.94;;;17.21;83.01
32320;BME280;19080;51.750;5.888;2023-04-29T10:26:00;101738.47;;;17.17;79.06
32320;BME280;19080;51.750;5.888;2023-04-29T10:28:32;101733.06;;;17.08;79.63
32320;BME280;19080;51.750;5.888;2023-04-29T10:31:00;101752.88;;;17.94;77.46
32320;BME280;19080;51.750;5.888;2023-04-29T10:33:30;101753.69;;;18.40;69.50
32320;BME280;19080;51.750;5.888;2023-04-29T10:36:00;101767.13;;;18.37;70.15
32320;BME280;19080;51.750;5.888;2023-04-29T10:38:48;101761.69;;;18.73;70.54
32320;BME280;19080;51.750;5.888;2023-04-29T10:41:27;101763.34;;;19.02;64.73
32320;BME280;19080;51.750;5.888;2023-04-29T10:43:58;101765.94;;;20.35;62.82
32320;BME280;19080;51.750;5.888;2023-04-29T10:46:26;101749.81;;;20.29;60.50
32320;BME280;19080;51.750;5.888;2023-04-29T10:49:10;101758.25;;;19.92;59.01
32320;BME280;19080;51.750;5.888;2023-04-29T10:51:42;101782.81;;;19.46;60.07
32320;BME280;19080;51.750;5.888;2023-04-29T10:54:13;101782.22;;;18.99;61.27
32320;BME280;19080;51.750;5.888;2023-04-29T10:56:51;101765.31;;;18.45;65.72
32320;BME280;19080;51.750;5.888;2023-04-29T10:59:21;101789.56;;;18.14;69.79
32320;BME280;19080;51.750;5.888;2023-04-29T11:01:52;101785.09;;;17.78;74.07
32320;BME280;19080;51.750;5.888;2023-04-29T11:04:22;101774.28;;;17.46;77.62
32320;BME280;19080;51.750;5.888;2023-04-29T11:06:53;101715.13;;;16.85;80.41
32320;BME280;19080;51.750;5.888;2023-04-29T11:09:25;101765.22;;;16.94;78.59
32320;BME280;19080;51.750;5.888;2023-04-29T11:12:08;101699.69;;;16.34;86.79
32320;BME280;19080;51.750;5.888;2023-04-29T11:17:12;101797.31;;;16.76;84.24
32320;BME280;19080;51.750;5.888;2023-04-29T11:19:46;101788.34;;;16.69;86.97
32320;BME280;19080;51.750;5.888;2023-04-29T11:24:53;101793.84;;;17.00;86.24
32320;BME280;19080;51.750;5.888;2023-04-29T11:27:23;101767.91;;;16.99;79.90
32320;BME280;19080;51.750;5.888;2023-04-29T11:29:54;101720.34;;;16.56;81.23
32320;BME280;19080;51.750;5.888;2023-04-29T11:32:32;101715.88;;;16.55;79.40
32320;BME280;19080;51.750;5.888;2023-04-29T11:35:10;101732.91;;;16.65;79.90
32320;BME280;19080;51.750;5.888;2023-04-29T11:37:38;101791.22;;;17.16;77.55
32320;BME280;19080;51.750;5.888;2023-04-29T11:40:05;101793.94;;;17.36;75.69
32320;BME280;19080;51.750;5.888;2023-04-29T11:42:53;101792.25;;;17.66;72.68
32320;BME280;19080;51.750;5.888;2023-04-29T11:45:20;101768.97;;;17.80;72.08
32320;BME280;19080;51.750;5.888;2023-04-29T11:47:47;101770.75;;;18.16;72.80
32320;BME280;19080;51.750;5.888;2023-04-29T11:50:15;101756.34;;;18.55;66.37
32320;BME280;19080;51.750;5.888;2023-04-29T11:52:48;101753.56;;;18.89;65.87
32320;BME280;19080;51.750;5.888;2023-04-29T11:55:15;101785.56;;;19.36;61.55
32320;BME280;19080;51.750;5.888;2023-04-29T11:57:41;101765.75;;;19.49;59.83
32320;BME280;19080;51.750;5.888;2023-04-29T12:00:10;101700.47;;;19.12;60.47
32320;BME280;19080;51.750;5.888;2023-04-29T12:02:38;101783.72;;;19.53;60.86
32320;BME280;19080;51.750;5.888;2023-04-29T12:05:09;101787.28;;;19.50;60.51
32320;BME280;19080;51.750;5.888;2023-04-29T12:07:38;101783.69;;;19.55;58.75
32320;BME280;19080;51.750;5.888;2023-04-29T12:10:09;101707.75;;;18.99;59.31
32320;BME280;19080;51.750;5.888;2023-04-29T12:12:38;101777.44;;;19.53;58.18
32320;BME280;19080;51.750;5.888;2023-04-29T12:15:07;101728.13;;;19.35;58.42
32320;BME280;19080;51.750;5.888;2023-04-29T12:17:35;101787.09;;;19.81;57.34
32320;BME280;19080;51.750;5.888;2023-04-29T12:20:02;101798.41;;;20.23;55.81
32320;BME280;19080;51.750;5.888;2023-04-29T12:22:32;101792.00;;;21.14;53.30
32320;BME280;19080;51.750;5.888;2023-04-29T12:25:02;101783.81;;;21.20;51.90
32320;BME280;19080;51.750;5.888;2023-04-29T12:27:29;101782.25;;;21.02;51.06
32320;BME280;19080;51.750;5.888;2023-04-29T12:29:56;101789.66;;;20.84;50.07
32320;BME280;19080;51.750;5.888;2023-04-29T12:32:24;101787.16;;;20.71;51.02
32320;BME280;19080;51.750;5.888;2023-04-29T12:34:51;101779.16;;;20.64;51.69
32320;BME280;19080;51.750;5.888;2023-04-29T12:37:20;101788.56;;;21.00;51.89
32320;BME280;19080;51.750;5.888;2023-04-29T12:39:49;101787.16;;;21.40;49.79
32320;BME280;19080;51.750;5.888;2023-04-29T12:42:16;101793.09;;;21.64;49.14
32320;BME280;19080;51.750;5.888;2023-04-29T12:44:47;101793.25;;;21.55;48.52
32320;BME280;19080;51.750;5.888;2023-04-29T12:47:15;101732.25;;;20.74;47.63
32320;BME280;19080;51.750;5.888;2023-04-29T12:49:44;101783.16;;;21.00;48.08
32320;BME280;19080;51.750;5.888;2023-04-29T12:52:11;101794.09;;;20.89;48.33
32320;BME280;19080;51.750;5.888;2023-04-29T12:54:39;101786.16;;;20.78;52.00
32320;BME280;19080;51.750;5.888;2023-04-29T12:57:10;101790.69;;;20.76;50.61
32320;BME280;19080;51.750;5.888;2023-04-29T12:59:37;101792.25;;;20.93;49.47
32320;BME280;19080;51.750;5.888;2023-04-29T13:02:05;101791.19;;;21.06;48.66
32320;BME280;19080;51.750;5.888;2023-04-29T13:04:31;101793.50;;;21.36;47.56
32320;BME280;19080;51.750;5.888;2023-04-29T13:06:58;101794.56;;;21.25;46.70